createdAt,value
2019-03-20T00:00:44.737Z,4.20
2019-03-20T00:05:49.034Z,4.10
2019-03-20T00:10:53.279Z,4.03
2019-03-20T00:15:57.555Z,4.01
2019-03-20T00:21:01.813Z,3.98
2019-03-20T00:26:06.045Z,4.03
2019-03-20T00:31:10.278Z,4.07
2019-03-20T00:36:14.508Z,4.04
2019-03-20T00:41:18.748Z,3.92
2019-03-20T00:46:22.977Z,3.87
2019-03-20T00:51:27.233Z,3.92
2019-03-20T00:56:31.463Z,3.83
2019-03-20T01:01:35.718Z,3.83
2019-03-20T01:06:39.936Z,3.84
2019-03-20T01:11:44.176Z,3.83
2019-03-20T01:16:48.411Z,3.77
2019-03-20T01:21:52.651Z,3.65
2019-03-20T01:26:56.887Z,3.63
2019-03-20T01:32:01.102Z,3.53
2019-03-20T01:37:05.337Z,3.59
2019-03-20T01:42:09.570Z,3.61
2019-03-20T01:47:13.796Z,3.67
2019-03-20T01:52:18.104Z,3.58
2019-03-20T01:57:22.444Z,3.52
2019-03-20T02:02:26.663Z,3.56
2019-03-20T02:07:30.901Z,3.55
2019-03-20T02:12:35.144Z,3.49
2019-03-20T02:17:39.444Z,3.40
2019-03-20T02:22:43.820Z,3.38
2019-03-20T02:27:48.052Z,3.40
2019-03-20T02:32:52.290Z,3.38
2019-03-20T02:37:56.517Z,3.29
2019-03-20T02:43:00.756Z,3.25
2019-03-20T02:48:04.994Z,3.22
2019-03-20T02:53:09.220Z,3.14
2019-03-20T02:58:13.456Z,3.12
2019-03-20T03:03:17.743Z,3.06
2019-03-20T03:08:21.972Z,3.07
2019-03-20T03:13:26.219Z,3.09
2019-03-20T03:18:30.448Z,3.11
2019-03-20T03:23:34.676Z,3.07
2019-03-20T03:28:38.907Z,2.99
2019-03-20T03:33:43.143Z,3.05
2019-03-20T03:38:47.363Z,3.00
2019-03-20T03:43:51.619Z,2.91
2019-03-20T03:48:55.914Z,2.88
2019-03-20T03:54:00.142Z,2.85
2019-03-20T03:59:04.373Z,2.79
2019-03-20T04:04:08.594Z,2.86
2019-03-20T04:09:12.830Z,2.86
2019-03-20T04:14:17.060Z,2.76
2019-03-20T04:19:21.286Z,2.81
2019-03-20T04:24:25.579Z,2.53
2019-03-20T04:29:29.798Z,2.67
2019-03-20T04:34:34.024Z,2.63
2019-03-20T04:39:38.315Z,2.69
2019-03-20T04:44:42.550Z,2.67
2019-03-20T04:49:46.787Z,2.58
2019-03-20T04:54:51.004Z,2.50
2019-03-20T04:59:55.242Z,2.33
2019-03-20T05:04:59.479Z,2.30
2019-03-20T05:10:03.970Z,2.18
2019-03-20T05:15:09.160Z,2.06
2019-03-20T05:20:13.644Z,2.10
2019-03-20T05:25:17.939Z,2.12
2019-03-20T05:30:22.161Z,2.12
2019-03-20T05:35:26.391Z,2.27
2019-03-20T05:40:30.627Z,2.30
2019-03-20T05:45:34.871Z,2.37
2019-03-20T05:50:39.104Z,2.37
2019-03-20T05:55:43.533Z,2.43
2019-03-20T06:00:47.769Z,2.59
2019-03-20T06:05:52.003Z,2.60
2019-03-20T06:10:56.243Z,2.68
2019-03-20T06:16:00.514Z,2.80
2019-03-20T06:21:04.756Z,2.95
2019-03-20T06:26:08.989Z,3.09
2019-03-20T06:31:13.220Z,3.18
2019-03-20T06:36:17.511Z,3.36
2019-03-20T06:41:21.744Z,3.42
2019-03-20T06:46:25.983Z,3.61
2019-03-20T06:51:30.229Z,3.69
2019-03-20T06:56:34.657Z,3.89
2019-03-20T07:01:38.703Z,4.11
2019-03-20T07:07:06.119Z,4.26
2019-03-20T07:12:10.356Z,4.47
2019-03-20T07:17:14.731Z,4.63
2019-03-20T07:22:18.952Z,4.82
2019-03-20T07:27:23.185Z,5.02
2019-03-20T07:32:29.843Z,5.11
2019-03-20T07:37:33.742Z,5.48
2019-03-20T07:42:38.102Z,5.49
2019-03-20T07:47:42.444Z,5.79
2019-03-20T07:52:46.680Z,6.03
2019-03-20T07:57:50.917Z,5.99
2019-03-20T08:02:55.304Z,6.35
2019-03-20T08:08:07.379Z,6.51
2019-03-20T08:13:05.714Z,6.65
2019-03-20T08:18:09.927Z,6.75
2019-03-20T08:23:14.381Z,6.91
2019-03-20T08:28:18.612Z,6.97
2019-03-20T08:33:22.867Z,7.18
2019-03-20T08:38:27.143Z,7.49
2019-03-20T08:43:31.389Z,7.84
2019-03-20T08:48:35.686Z,7.89
2019-03-20T08:53:39.916Z,7.91
2019-03-20T08:58:44.241Z,8.21
2019-03-20T09:03:48.582Z,8.28
2019-03-20T09:08:52.919Z,8.15
2019-03-20T09:13:57.202Z,8.26
2019-03-20T09:19:01.494Z,8.57
2019-03-20T09:24:05.938Z,8.55
2019-03-20T09:29:18.469Z,8.82
2019-03-20T09:34:16.637Z,9.02
2019-03-20T09:39:20.904Z,9.06
2019-03-20T09:44:25.531Z,9.09
2019-03-20T09:49:29.770Z,8.92
2019-03-20T09:54:34.140Z,9.19
2019-03-20T09:59:38.526Z,9.33
2019-03-20T10:04:42.863Z,9.67
2019-03-20T10:09:47.109Z,9.73
2019-03-20T10:14:51.341Z,9.74
2019-03-20T10:19:55.577Z,10.16
2019-03-20T10:24:59.827Z,10.48
2019-03-20T10:30:04.779Z,9.95
2019-03-20T10:35:10.052Z,10.73
2019-03-20T10:40:16.071Z,11.26
2019-03-20T10:45:20.363Z,11.50
2019-03-20T10:50:24.618Z,12.20
2019-03-20T10:55:28.878Z,12.91
2019-03-20T11:00:33.538Z,12.98
2019-03-20T11:05:37.785Z,13.23
2019-03-20T11:10:42.430Z,13.67
2019-03-20T11:15:46.826Z,14.15
2019-03-20T11:20:53.526Z,14.05
2019-03-20T11:25:57.116Z,12.79
2019-03-20T11:31:01.350Z,14.88
2019-03-20T11:36:05.602Z,14.68
2019-03-20T11:41:09.868Z,13.39
2019-03-20T11:46:14.128Z,12.93
2019-03-20T11:51:18.380Z,12.81
2019-03-20T11:56:22.622Z,12.72
2019-03-20T12:01:26.890Z,14.37
2019-03-20T12:06:31.134Z,13.37
2019-03-20T12:11:45.421Z,12.65
2019-03-20T12:16:41.415Z,13.02
2019-03-20T12:21:45.663Z,12.44
2019-03-20T12:26:49.903Z,12.92
2019-03-20T12:31:54.145Z,12.86
2019-03-20T12:36:58.372Z,14.00
2019-03-20T12:42:02.729Z,14.20
2019-03-20T12:47:06.999Z,13.98
2019-03-20T12:52:11.247Z,13.20
2019-03-20T12:57:15.499Z,14.61
2019-03-20T13:02:19.903Z,13.07
2019-03-20T13:07:24.164Z,14.67
2019-03-20T13:12:28.857Z,13.44
2019-03-20T13:17:33.189Z,13.20
2019-03-20T13:22:37.525Z,14.35
2019-03-20T13:27:41.803Z,14.14
2019-03-20T13:32:46.608Z,13.91
2019-03-20T13:37:51.359Z,13.48
2019-03-20T13:42:55.605Z,13.48
2019-03-20T13:47:59.873Z,13.53
2019-03-20T13:53:04.207Z,14.00
2019-03-20T13:58:08.444Z,14.76
2019-03-20T14:03:12.717Z,15.17
2019-03-20T14:08:16.951Z,14.30
2019-03-20T14:13:21.188Z,14.79
2019-03-20T14:18:25.440Z,14.76
2019-03-20T14:23:29.692Z,13.24
2019-03-20T14:28:33.936Z,13.71
2019-03-20T14:33:39.099Z,13.44
2019-03-20T14:38:43.355Z,13.71
2019-03-20T14:43:47.608Z,13.57
2019-03-20T14:48:51.843Z,13.82
2019-03-20T14:53:56.080Z,13.14
2019-03-20T14:59:00.384Z,12.82
2019-03-20T15:04:04.639Z,13.00
2019-03-20T15:09:09.871Z,13.23
2019-03-20T15:14:14.583Z,12.86
2019-03-20T15:19:19.214Z,12.78
2019-03-20T15:24:23.451Z,13.05
2019-03-20T15:29:27.882Z,12.98
2019-03-20T15:34:32.120Z,12.84
2019-03-20T15:39:36.393Z,12.76
2019-03-20T15:44:40.638Z,12.85
2019-03-20T15:49:44.903Z,12.60
2019-03-20T15:54:49.132Z,12.56
2019-03-20T15:59:53.399Z,12.42
2019-03-20T16:04:57.679Z,12.51
2019-03-20T16:10:01.921Z,12.48
2019-03-20T16:15:08.336Z,12.29
2019-03-20T16:20:12.841Z,12.30
2019-03-20T16:25:17.263Z,12.28
2019-03-20T16:30:22.373Z,12.35
2019-03-20T16:35:26.767Z,12.28
2019-03-20T16:40:31.050Z,12.25
2019-03-20T16:45:35.345Z,12.34
2019-03-20T16:50:39.603Z,12.18
2019-03-20T16:55:43.849Z,12.19
2019-03-20T17:00:48.100Z,12.22
2019-03-20T17:05:52.460Z,12.20
2019-03-20T17:10:56.703Z,12.20
2019-03-20T17:16:00.957Z,12.14
2019-03-20T17:21:05.409Z,12.03
2019-03-20T17:26:09.699Z,12.08
2019-03-20T17:31:13.966Z,12.01
2019-03-20T17:36:18.206Z,12.08
2019-03-20T17:41:22.461Z,11.97
2019-03-20T17:46:26.759Z,12.02
2019-03-20T17:51:30.955Z,12.01
2019-03-20T17:56:35.240Z,11.87
2019-03-20T18:01:39.438Z,11.91
2019-03-20T18:06:43.688Z,11.87
2019-03-20T18:11:47.998Z,11.87
2019-03-20T18:16:52.284Z,11.87
2019-03-20T18:21:56.570Z,11.87
2019-03-20T18:27:00.958Z,11.93
2019-03-20T18:32:05.345Z,11.85
2019-03-20T18:37:09.605Z,11.80
2019-03-20T18:42:13.894Z,11.64
2019-03-20T18:47:18.150Z,11.53
2019-03-20T18:52:22.575Z,11.56
2019-03-20T18:57:27.214Z,11.50
2019-03-20T19:02:31.673Z,11.29
2019-03-20T19:07:35.918Z,11.27
2019-03-20T19:12:40.279Z,11.20
2019-03-20T19:17:44.642Z,11.09
2019-03-20T19:22:48.985Z,11.04
2019-03-20T19:27:53.229Z,11.09
2019-03-20T19:32:57.594Z,11.08
2019-03-20T19:38:01.853Z,11.18
2019-03-20T19:43:06.181Z,11.16
2019-03-20T19:48:10.473Z,11.20
2019-03-20T19:53:14.994Z,11.20
2019-03-20T19:58:19.276Z,11.20
2019-03-20T20:03:28.417Z,11.22
2019-03-20T20:08:33.221Z,11.20
2019-03-20T20:13:37.480Z,11.15
2019-03-20T20:18:41.747Z,11.29
2019-03-20T20:23:46.001Z,11.33
2019-03-20T20:28:50.266Z,11.16
2019-03-20T20:33:54.517Z,11.17
2019-03-20T20:38:58.762Z,11.20
2019-03-20T20:44:03.036Z,11.17
2019-03-20T20:49:07.309Z,11.12
2019-03-20T20:54:11.657Z,11.11
2019-03-20T20:59:15.927Z,11.18
2019-03-20T21:04:20.178Z,11.16
2019-03-20T21:09:24.441Z,11.09
2019-03-20T21:14:28.692Z,11.04
2019-03-20T21:19:38.979Z,10.95
2019-03-20T21:24:43.747Z,11.00
2019-03-20T21:30:27.409Z,10.89
2019-03-20T21:36:21.451Z,10.89
2019-03-20T21:42:07.520Z,10.89
2019-03-20T21:47:31.935Z,10.86
2019-03-20T21:52:37.340Z,10.80
2019-03-20T21:58:09.294Z,10.68
2019-03-20T22:03:14.252Z,10.60
2019-03-20T22:08:19.214Z,10.59
2019-03-20T22:14:00.248Z,10.63
2019-03-20T22:20:00.422Z,10.47
2019-03-20T22:25:44.923Z,10.51
2019-03-20T22:30:49.695Z,10.50
2019-03-20T22:36:17.928Z,10.40
2019-03-20T22:41:52.454Z,10.49
2019-03-20T22:47:34.830Z,10.40
2019-03-20T22:53:06.788Z,10.13
2019-03-20T22:58:35.251Z,10.12
2019-03-20T23:03:43.972Z,10.06
2019-03-20T23:08:48.763Z,10.05
2019-03-20T23:13:53.511Z,9.96
2019-03-20T23:18:58.320Z,9.77
2019-03-20T23:24:03.109Z,9.70
2019-03-20T23:29:07.981Z,9.78
2019-03-20T23:34:12.774Z,9.84
2019-03-20T23:39:17.645Z,9.84
2019-03-20T23:44:22.431Z,9.89
2019-03-20T23:49:27.321Z,9.97
2019-03-20T23:54:37.212Z,9.81
2019-03-20T23:59:41.983Z,9.91
